sensor_id;sensor_type;location;lat;lon;timestamp;pressure;altitude;pressure_sealevel;temperature;humidity
62928;BME280;51070;52.236;-0.892;2023-06-22T00:02:05;100959.38;;;19.46;72.23
62928;BME280;51070;52.236;-0.892;2023-06-22T00:04:31;100959.37;;;19.46;72.17
62928;BME280;51070;52.236;-0.892;2023-06-22T00:06:56;100958.33;;;19.46;71.96
62928;BME280;51070;52.236;-0.892;2023-06-22T00:09:22;100953.38;;;19.43;71.89
62928;BME280;51070;52.236;-0.892;2023-06-22T00:11:47;100952.67;;;19.41;71.97
62928;BME280;51070;52.236;-0.892;2023-06-22T00:14:12;100952.51;;;19.39;71.88
62928;BME280;51070;52.236;-0.892;2023-06-22T00:16:38;100950.39;;;19.33;71.87
62928;BME280;51070;52.236;-0.892;2023-06-22T00:19:03;100953.20;;;19.28;72.16
62928;BME280;51070;52.236;-0.892;2023-06-22T00:21:29;100955.84;;;19.26;72.28
62928;BME280;51070;52.236;-0.892;2023-06-22T00:23:56;100963.55;;;19.25;72.38
62928;BME280;51070;52.236;-0.892;2023-06-22T00:26:22;100965.13;;;19.19;72.67
62928;BME280;51070;52.236;-0.892;2023-06-22T00:28:48;100966.33;;;19.10;73.11
62928;BME280;51070;52.236;-0.892;2023-06-22T00:31:14;100967.36;;;18.99;73.76
62928;BME280;51070;52.236;-0.892;2023-06-22T00:33:39;100962.80;;;18.90;73.90
62928;BME280;51070;52.236;-0.892;2023-06-22T00:36:05;100965.76;;;18.85;74.26
62928;BME280;51070;52.236;-0.892;2023-06-22T00:38:33;100969.96;;;18.83;74.44
62928;BME280;51070;52.236;-0.892;2023-06-22T00:40:58;100975.57;;;18.82;74.99
62928;BME280;51070;52.236;-0.892;2023-06-22T00:43:24;100978.36;;;18.80;74.98
62928;BME280;51070;52.236;-0.892;2023-06-22T00:45:49;100973.96;;;18.72;75.02
62928;BME280;51070;52.236;-0.892;2023-06-22T00:48:15;100974.98;;;18.64;75.49
62928;BME280;51070;52.236;-0.892;2023-06-22T00:50:41;100978.99;;;18.60;75.76
62928;BME280;51070;52.236;-0.892;2023-06-22T00:53:08;100981.95;;;18.58;75.92
62928;BME280;51070;52.236;-0.892;2023-06-22T00:55:38;100979.50;;;18.55;76.18
62928;BME280;51070;52.236;-0.892;2023-06-22T00:58:09;100981.21;;;18.53;76.38
62928;BME280;51070;52.236;-0.892;2023-06-22T01:00:39;100980.66;;;18.49;76.62
62928;BME280;51070;52.236;-0.892;2023-06-22T01:03:05;100984.34;;;18.44;76.67
62928;BME280;51070;52.236;-0.892;2023-06-22T01:05:35;100983.25;;;18.42;76.91
62928;BME280;51070;52.236;-0.892;2023-06-22T01:08:12;100984.86;;;18.45;77.25
62928;BME280;51070;52.236;-0.892;2023-06-22T01:10:52;100984.36;;;18.51;77.25
62928;BME280;51070;52.236;-0.892;2023-06-22T01:13:28;100988.06;;;18.55;76.93
62928;BME280;51070;52.236;-0.892;2023-06-22T01:16:18;100988.22;;;18.54;76.94
62928;BME280;51070;52.236;-0.892;2023-06-22T01:18:47;100989.66;;;18.55;77.25
62928;BME280;51070;52.236;-0.892;2023-06-22T01:21:16;100994.94;;;18.61;77.26
62928;BME280;51070;52.236;-0.892;2023-06-22T01:26:38;100992.31;;;18.61;76.78
62928;BME280;51070;52.236;-0.892;2023-06-22T01:29:05;100991.77;;;18.60;76.65
62928;BME280;51070;52.236;-0.892;2023-06-22T01:31:33;100989.14;;;18.57;76.72
62928;BME280;51070;52.236;-0.892;2023-06-22T01:34:03;100987.21;;;18.57;76.99
62928;BME280;51070;52.236;-0.892;2023-06-22T01:36:31;100988.09;;;18.60;76.79
62928;BME280;51070;52.236;-0.892;2023-06-22T01:38:58;100988.45;;;18.60;76.96
62928;BME280;51070;52.236;-0.892;2023-06-22T01:41:28;100992.31;;;18.62;76.83
62928;BME280;51070;52.236;-0.892;2023-06-22T01:43:55;100988.98;;;18.63;76.88
62928;BME280;51070;52.236;-0.892;2023-06-22T01:46:21;100988.27;;;18.58;76.69
62928;BME280;51070;52.236;-0.892;2023-06-22T01:48:48;100988.04;;;18.53;77.03
62928;BME280;51070;52.236;-0.892;2023-06-22T01:51:14;100987.68;;;18.51;77.05
62928;BME280;51070;52.236;-0.892;2023-06-22T01:53:40;100991.18;;;18.50;77.29
62928;BME280;51070;52.236;-0.892;2023-06-22T01:56:06;100989.60;;;18.52;77.13
62928;BME280;51070;52.236;-0.892;2023-06-22T01:58:32;100988.21;;;18.53;77.25
62928;BME280;51070;52.236;-0.892;2023-06-22T02:01:11;100990.01;;;18.56;77.06
62928;BME280;51070;52.236;-0.892;2023-06-22T02:03:52;100991.06;;;18.60;77.08
62928;BME280;51070;52.236;-0.892;2023-06-22T02:06:29;100988.45;;;18.62;76.67
62928;BME280;51070;52.236;-0.892;2023-06-22T02:09:05;100986.02;;;18.64;76.76
62928;BME280;51070;52.236;-0.892;2023-06-22T02:11:33;100981.65;;;18.66;76.57
62928;BME280;51070;52.236;-0.892;2023-06-22T02:14:00;100983.58;;;18.66;76.56
62928;BME280;51070;52.236;-0.892;2023-06-22T02:16:26;100984.45;;;18.66;76.43
62928;BME280;51070;52.236;-0.892;2023-06-22T02:18:55;100984.96;;;18.61;76.18
62928;BME280;51070;52.236;-0.892;2023-06-22T02:21:28;100987.56;;;18.55;76.40
62928;BME280;51070;52.236;-0.892;2023-06-22T02:23:54;100988.02;;;18.53;76.62
62928;BME280;51070;52.236;-0.892;2023-06-22T02:26:19;100982.61;;;18.51;76.43
62928;BME280;51070;52.236;-0.892;2023-06-22T02:28:45;100976.66;;;18.51;76.49
62928;BME280;51070;52.236;-0.892;2023-06-22T02:31:11;100979.79;;;18.48;76.55
62928;BME280;51070;52.236;-0.892;2023-06-22T02:33:36;100985.73;;;18.44;76.83
62928;BME280;51070;52.236;-0.892;2023-06-22T02:36:02;100990.61;;;18.40;76.88
62928;BME280;51070;52.236;-0.892;2023-06-22T02:38:35;100988.84;;;18.37;77.01
62928;BME280;51070;52.236;-0.892;2023-06-22T02:41:01;100988.82;;;18.34;76.75
62928;BME280;51070;52.236;-0.892;2023-06-22T02:43:27;100987.76;;;18.28;77.04
62928;BME280;51070;52.236;-0.892;2023-06-22T02:45:53;100988.42;;;18.24;77.01
62928;BME280;51070;52.236;-0.892;2023-06-22T02:48:19;100988.94;;;18.22;77.21
62928;BME280;51070;52.236;-0.892;2023-06-22T02:50:44;100990.50;;;18.20;77.42
62928;BME280;51070;52.236;-0.892;2023-06-22T02:53:09;100990.50;;;18.20;77.24
62928;BME280;51070;52.236;-0.892;2023-06-22T02:55:35;100987.52;;;18.19;77.43
62928;BME280;51070;52.236;-0.892;2023-06-22T02:58:00;100982.27;;;18.17;77.46
62928;BME280;51070;52.236;-0.892;2023-06-22T03:00:30;100982.94;;;18.11;77.58
62928;BME280;51070;52.236;-0.892;2023-06-22T03:02:56;100987.65;;;18.07;77.77
62928;BME280;51070;52.236;-0.892;2023-06-22T03:05:22;100989.36;;;18.03;77.92
62928;BME280;51070;52.236;-0.892;2023-06-22T03:07:48;100992.48;;;17.98;77.84
62928;BME280;51070;52.236;-0.892;2023-06-22T03:10:14;100996.29;;;17.92;77.92
62928;BME280;51070;52.236;-0.892;2023-06-22T03:12:41;100995.70;;;17.85;78.12
62928;BME280;51070;52.236;-0.892;2023-06-22T03:15:09;100991.66;;;17.80;78.31
62928;BME280;51070;52.236;-0.892;2023-06-22T03:17:35;100989.36;;;17.76;78.30
62928;BME280;51070;52.236;-0.892;2023-06-22T03:20:01;100993.17;;;17.73;78.56
62928;BME280;51070;52.236;-0.892;2023-06-22T03:22:37;100997.02;;;17.71;78.59
62928;BME280;51070;52.236;-0.892;2023-06-22T03:25:04;100999.43;;;17.68;78.84
62928;BME280;51070;52.236;-0.892;2023-06-22T03:27:29;101001.86;;;17.65;79.07
62928;BME280;51070;52.236;-0.892;2023-06-22T03:29:56;100998.87;;;17.62;79.27
62928;BME280;51070;52.236;-0.892;2023-06-22T03:32:22;100997.27;;;17.58;79.30
62928;BME280;51070;52.236;-0.892;2023-06-22T03:34:47;100995.63;;;17.55;79.50
62928;BME280;51070;52.236;-0.892;2023-06-22T03:37:14;100998.39;;;17.51;79.50
62928;BME280;51070;52.236;-0.892;2023-06-22T03:39:43;100997.81;;;17.45;79.59
62928;BME280;51070;52.236;-0.892;2023-06-22T03:42:08;100995.70;;;17.42;79.80
62928;BME280;51070;52.236;-0.892;2023-06-22T03:44:35;100996.39;;;17.41;79.94
62928;BME280;51070;52.236;-0.892;2023-06-22T03:47:02;100993.05;;;17.39;80.05
62928;BME280;51070;52.236;-0.892;2023-06-22T03:49:28;100991.30;;;17.38;80.44
62928;BME280;51070;52.236;-0.892;2023-06-22T03:51:53;100990.42;;;17.39;80.41
62928;BME280;51070;52.236;-0.892;2023-06-22T03:54:18;100988.72;;;17.42;80.51
62928;BME280;51070;52.236;-0.892;2023-06-22T03:56:44;100986.28;;;17.44;80.39
62928;BME280;51070;52.236;-0.892;2023-06-22T03:59:09;100980.70;;;17.45;80.37
62928;BME280;51070;52.236;-0.892;2023-06-22T04:01:35;100981.94;;;17.47;80.23
62928;BME280;51070;52.236;-0.892;2023-06-22T04:04:00;100981.77;;;17.47;80.03
62928;BME280;51070;52.236;-0.892;2023-06-22T04:06:25;100978.76;;;17.42;80.17
62928;BME280;51070;52.236;-0.892;2023-06-22T04:08:51;100979.42;;;17.40;80.60
62928;BME280;51070;52.236;-0.892;2023-06-22T04:11:17;100977.67;;;17.39;80.59
62928;BME280;51070;52.236;-0.892;2023-06-22T04:13:43;100975.08;;;17.41;80.49
62928;BME280;51070;52.236;-0.892;2023-06-22T04:16:09;100974.05;;;17.44;80.53
62928;BME280;51070;52.236;-0.892;2023-06-22T04:18:34;100974.06;;;17.45;80.20
62928;BME280;51070;52.236;-0.892;2023-06-22T04:21:01;100976.17;;;17.47;80.54
62928;BME280;51070;52.236;-0.892;2023-06-22T04:23:26;100974.45;;;17.49;80.57
62928;BME280;51070;52.236;-0.892;2023-06-22T04:25:52;100975.67;;;17.50;80.37
62928;BME280;51070;52.236;-0.892;2023-06-22T04:28:17;100976.58;;;17.53;80.02
62928;BME280;51070;52.236;-0.892;2023-06-22T04:30:42;100977.09;;;17.52;79.87
62928;BME280;51070;52.236;-0.892;2023-06-22T04:33:13;100980.58;;;17.52;79.84
62928;BME280;51070;52.236;-0.892;2023-06-22T04:35:38;100981.80;;;17.52;79.77
62928;BME280;51070;52.236;-0.892;2023-06-22T04:38:07;100987.75;;;17.53;79.70
62928;BME280;51070;52.236;-0.892;2023-06-22T04:40:33;100984.59;;;17.51;79.40
62928;BME280;51070;52.236;-0.892;2023-06-22T04:42:58;100979.52;;;17.49;79.57
62928;BME280;51070;52.236;-0.892;2023-06-22T04:45:28;100975.31;;;17.49;79.77
62928;BME280;51070;52.236;-0.892;2023-06-22T04:47:54;100975.35;;;17.52;79.90
62928;BME280;51070;52.236;-0.892;2023-06-22T04:50:20;100975.02;;;17.56;79.88
62928;BME280;51070;52.236;-0.892;2023-06-22T04:52:47;100982.08;;;17.60;79.93
62928;BME280;51070;52.236;-0.892;2023-06-22T04:55:14;100987.70;;;17.66;79.76
62928;BME280;51070;52.236;-0.892;2023-06-22T04:57:46;100991.58;;;17.68;79.59
62928;BME280;51070;52.236;-0.892;2023-06-22T05:02:44;100990.25;;;17.79;79.55
62928;BME280;51070;52.236;-0.892;2023-06-22T05:05:13;100998.52;;;17.86;79.32
62928;BME280;51070;52.236;-0.892;2023-06-22T05:07:43;100999.13;;;17.99;79.33
62928;BME280;51070;52.236;-0.892;2023-06-22T05:10:10;101000.25;;;18.12;78.83
62928;BME280;51070;52.236;-0.892;2023-06-22T05:12:37;100995.08;;;18.24;78.30
62928;BME280;51070;52.236;-0.892;2023-06-22T05:15:04;100991.81;;;18.36;77.77
62928;BME280;51070;52.236;-0.892;2023-06-22T05:17:30;100989.42;;;18.49;77.54
62928;BME280;51070;52.236;-0.892;2023-06-22T05:19:55;100987.23;;;18.62;77.08
62928;BME280;51070;52.236;-0.892;2023-06-22T05:22:20;100985.52;;;18.72;76.46
62928;BME280;51070;52.236;-0.892;2023-06-22T05:24:46;100987.30;;;18.80;76.35
62928;BME280;51070;52.236;-0.892;2023-06-22T05:27:12;100995.01;;;18.88;76.20
62928;BME280;51070;52.236;-0.892;2023-06-22T05:29:38;101001.17;;;19.00;76.10
62928;BME280;51070;52.236;-0.892;2023-06-22T05:32:05;101005.40;;;19.14;75.72
62928;BME280;51070;52.236;-0.892;2023-06-22T05:34:31;101004.89;;;19.25;74.89
62928;BME280;51070;52.236;-0.892;2023-06-22T05:36:57;101006.65;;;19.34;74.40
62928;BME280;51070;52.236;-0.892;2023-06-22T05:39:24;101006.50;;;19.44;74.17
62928;BME280;51070;52.236;-0.892;2023-06-22T05:41:51;101012.48;;;19.58;73.91
62928;BME280;51070;52.236;-0.892;2023-06-22T05:44:16;101018.78;;;19.74;73.62
62928;BME280;51070;52.236;-0.892;2023-06-22T05:46:43;101018.08;;;19.89;73.04
62928;BME280;51070;52.236;-0.892;2023-06-22T05:49:13;101020.15;;;20.04;72.61
62928;BME280;51070;52.236;-0.892;2023-06-22T05:51:39;101015.91;;;20.17;72.14
62928;BME280;51070;52.236;-0.892;2023-06-22T05:54:05;101012.02;;;20.27;71.94
62928;BME280;51070;52.236;-0.892;2023-06-22T05:56:30;101012.02;;;20.36;71.86
62928;BME280;51070;52.236;-0.892;2023-06-22T05:58:56;101016.39;;;20.44;71.41
62928;BME280;51070;52.236;-0.892;2023-06-22T06:01:21;101011.45;;;20.49;71.32
62928;BME280;51070;52.236;-0.892;2023-06-22T06:03:47;101012.83;;;20.60;71.00
62928;BME280;51070;52.236;-0.892;2023-06-22T06:06:15;101015.56;;;20.74;70.47
62928;BME280;51070;52.236;-0.892;2023-06-22T06:08:41;101018.27;;;20.93;69.93
62928;BME280;51070;52.236;-0.892;2023-06-22T06:11:06;101017.80;;;21.17;69.27
62928;BME280;51070;52.236;-0.892;2023-06-22T06:13:31;101020.27;;;21.64;68.30
62928;BME280;51070;52.236;-0.892;2023-06-22T06:15:57;101010.90;;;22.69;66.04
62928;BME280;51070;52.236;-0.892;2023-06-22T06:18:22;101010.06;;;23.74;63.70
62928;BME280;51070;52.236;-0.892;2023-06-22T06:20:48;101011.03;;;24.55;61.27
62928;BME280;51070;52.236;-0.892;2023-06-22T06:23:14;101011.63;;;25.02;59.58
62928;BME280;51070;52.236;-0.892;2023-06-22T06:25:39;101007.86;;;25.34;58.33
62928;BME280;51070;52.236;-0.892;2023-06-22T06:28:05;101006.11;;;25.41;57.29
62928;BME280;51070;52.236;-0.892;2023-06-22T06:30:31;101006.52;;;25.30;56.94
62928;BME280;51070;52.236;-0.892;2023-06-22T06:32:56;101004.33;;;25.04;56.68
62928;BME280;51070;52.236;-0.892;2023-06-22T06:35:22;101000.59;;;24.80;57.40
62928;BME280;51070;52.236;-0.892;2023-06-22T06:37:49;101001.02;;;24.60;57.78
62928;BME280;51070;52.236;-0.892;2023-06-22T06:40:15;101005.10;;;24.42;57.92
62928;BME280;51070;52.236;-0.892;2023-06-22T06:42:43;101005.95;;;24.26;58.00
62928;BME280;51070;52.236;-0.892;2023-06-22T06:45:16;101011.73;;;24.09;58.52
62928;BME280;51070;52.236;-0.892;2023-06-22T06:47:42;101014.30;;;23.95;58.67
62928;BME280;51070;52.236;-0.892;2023-06-22T06:50:08;101017.05;;;23.89;58.74
62928;BME280;51070;52.236;-0.892;2023-06-22T06:52:33;101020.18;;;23.91;58.88
62928;BME280;51070;52.236;-0.892;2023-06-22T06:54:59;101020.91;;;24.00;58.46
62928;BME280;51070;52.236;-0.892;2023-06-22T06:57:25;101020.62;;;24.52;57.71
62928;BME280;51070;52.236;-0.892;2023-06-22T06:59:56;101019.14;;;24.81;56.47
62928;BME280;51070;52.236;-0.892;2023-06-22T07:02:22;101013.06;;;24.93;55.97
62928;BME280;51070;52.236;-0.892;2023-06-22T07:04:48;101012.56;;;25.07;55.56
62928;BME280;51070;52.236;-0.892;2023-06-22T07:07:14;101014.75;;;25.27;55.25
62928;BME280;51070;52.236;-0.892;2023-06-22T07:09:39;101014.75;;;25.57;54.79
62928;BME280;51070;52.236;-0.892;2023-06-22T07:12:06;101018.79;;;25.65;54.59
62928;BME280;51070;52.236;-0.892;2023-06-22T07:14:32;101022.50;;;25.66;54.13
62928;BME280;51070;52.236;-0.892;2023-06-22T07:16:57;101017.68;;;25.60;53.97
62928;BME280;51070;52.236;-0.892;2023-06-22T07:19:27;101018.93;;;25.52;54.11
62928;BME280;51070;52.236;-0.892;2023-06-22T07:21:53;101014.80;;;25.63;53.77
62928;BME280;51070;52.236;-0.892;2023-06-22T07:24:22;101011.14;;;26.08;52.99
62928;BME280;51070;52.236;-0.892;2023-06-22T07:26:48;101005.48;;;26.82;51.45
62928;BME280;51070;52.236;-0.892;2023-06-22T07:29:16;101004.18;;;28.36;48.98
62928;BME280;51070;52.236;-0.892;2023-06-22T07:31:42;101004.45;;;30.27;45.89
62928;BME280;51070;52.236;-0.892;2023-06-22T07:34:07;101004.61;;;31.87;42.65
62928;BME280;51070;52.236;-0.892;2023-06-22T07:36:33;101005.44;;;33.33;40.02
62928;BME280;51070;52.236;-0.892;2023-06-22T07:39:01;101002.39;;;34.57;37.34
62928;BME280;51070;52.236;-0.892;2023-06-22T07:41:28;101004.26;;;35.57;35.46
62928;BME280;51070;52.236;-0.892;2023-06-22T07:43:53;101011.45;;;36.61;33.81
62928;BME280;51070;52.236;-0.892;2023-06-22T07:46:18;101016.77;;;37.52;32.46
62928;BME280;51070;52.236;-0.892;2023-06-22T07:48:43;101011.17;;;38.33;31.47
62928;BME280;51070;52.236;-0.892;2023-06-22T07:51:09;101008.50;;;39.02;30.38
62928;BME280;51070;52.236;-0.892;2023-06-22T07:53:39;101005.45;;;39.66;29.06
62928;BME280;51070;52.236;-0.892;2023-06-22T07:56:05;101008.33;;;40.25;27.95
62928;BME280;51070;52.236;-0.892;2023-06-22T07:58:32;101003.83;;;40.65;27.15
62928;BME280;51070;52.236;-0.892;2023-06-22T08:00:58;101007.55;;;40.96;27.09
62928;BME280;51070;52.236;-0.892;2023-06-22T08:03:24;101010.73;;;41.34;26.12
62928;BME280;51070;52.236;-0.892;2023-06-22T08:05:50;101013.07;;;41.68;25.58
62928;BME280;51070;52.236;-0.892;2023-06-22T08:08:15;101008.73;;;41.97;25.03
62928;BME280;51070;52.236;-0.892;2023-06-22T08:10:42;101005.75;;;42.26;24.38
62928;BME280;51070;52.236;-0.892;2023-06-22T08:13:07;101006.15;;;42.51;23.88
62928;BME280;51070;52.236;-0.892;2023-06-22T08:15:33;101005.11;;;42.76;23.83
62928;BME280;51070;52.236;-0.892;2023-06-22T08:17:58;101009.02;;;42.99;22.86
62928;BME280;51070;52.236;-0.892;2023-06-22T08:20:25;101006.45;;;43.16;22.82
62928;BME280;51070;52.236;-0.892;2023-06-22T08:22:50;101005.92;;;43.37;22.28
62928;BME280;51070;52.236;-0.892;2023-06-22T08:25:15;101003.54;;;43.44;22.29
62928;BME280;51070;52.236;-0.892;2023-06-22T08:27:45;101004.73;;;43.54;22.40
62928;BME280;51070;52.236;-0.892;2023-06-22T08:30:11;101001.52;;;43.75;22.01
62928;BME280;51070;52.236;-0.892;2023-06-22T08:32:36;101002.59;;;43.99;21.66
62928;BME280;51070;52.236;-0.892;2023-06-22T08:35:02;101004.03;;;44.13;21.22
62928;BME280;51070;52.236;-0.892;2023-06-22T08:37:28;101001.84;;;44.22;20.83
62928;BME280;51070;52.236;-0.892;2023-06-22T08:40:03;101002.44;;;44.41;20.04
62928;BME280;51070;52.236;-0.892;2023-06-22T08:42:40;101000.29;;;44.52;20.33
62928;BME280;51070;52.236;-0.892;2023-06-22T08:45:07;100999.81;;;44.66;20.07
62928;BME280;51070;52.236;-0.892;2023-06-22T08:47:33;100997.27;;;44.80;19.97
62928;BME280;51070;52.236;-0.892;2023-06-22T08:49:58;100995.45;;;44.84;19.88
62928;BME280;51070;52.236;-0.892;2023-06-22T08:52:24;101000.48;;;44.83;19.46
62928;BME280;51070;52.236;-0.892;2023-06-22T08:54:49;101001.58;;;44.72;19.61
62928;BME280;51070;52.236;-0.892;2023-06-22T08:57:15;100998.89;;;44.65;19.07
62928;BME280;51070;52.236;-0.892;2023-06-22T08:59:41;100997.38;;;43.80;20.14
62928;BME280;51070;52.236;-0.892;2023-06-22T09:02:07;100997.30;;;41.82;21.49
62928;BME280;51070;52.236;-0.892;2023-06-22T09:04:32;100991.55;;;40.73;22.65
62928;BME280;51070;52.236;-0.892;2023-06-22T09:07:01;100990.72;;;40.74;22.62
62928;BME280;51070;52.236;-0.892;2023-06-22T09:09:27;100991.02;;;39.31;23.37
62928;BME280;51070;52.236;-0.892;2023-06-22T09:11:52;100998.85;;;37.88;25.41
62928;BME280;51070;52.236;-0.892;2023-06-22T09:14:17;100999.11;;;36.65;26.27
62928;BME280;51070;52.236;-0.892;2023-06-22T09:16:43;101001.27;;;35.64;27.37
62928;BME280;51070;52.236;-0.892;2023-06-22T09:19:08;101004.45;;;34.67;28.45
62928;BME280;51070;52.236;-0.892;2023-06-22T09:21:34;101013.98;;;33.91;29.95
62928;BME280;51070;52.236;-0.892;2023-06-22T09:23:59;101016.42;;;33.53;29.86
62928;BME280;51070;52.236;-0.892;2023-06-22T09:26:25;101014.78;;;34.76;28.85
62928;BME280;51070;52.236;-0.892;2023-06-22T09:28:50;101015.11;;;35.27;28.89
62928;BME280;51070;52.236;-0.892;2023-06-22T09:31:15;101011.41;;;35.10;28.61
62928;BME280;51070;52.236;-0.892;2023-06-22T09:33:42;101007.44;;;34.65;29.11
62928;BME280;51070;52.236;-0.892;2023-06-22T09:36:08;101010.41;;;34.75;30.04
62928;BME280;51070;52.236;-0.892;2023-06-22T09:38:37;101013.08;;;34.84;30.34
62928;BME280;51070;52.236;-0.892;2023-06-22T09:41:03;101017.67;;;34.02;30.51
62928;BME280;51070;52.236;-0.892;2023-06-22T09:43:31;101018.87;;;33.23;31.46
62928;BME280;51070;52.236;-0.892;2023-06-22T09:45:56;101020.44;;;32.47;32.74
62928;BME280;51070;52.236;-0.892;2023-06-22T09:48:22;101019.96;;;31.84;33.44
62928;BME280;51070;52.236;-0.892;2023-06-22T09:50:47;101024.93;;;31.32;33.71
62928;BME280;51070;52.236;-0.892;2023-06-22T09:53:13;101025.72;;;30.81;34.56
62928;BME280;51070;52.236;-0.892;2023-06-22T09:55:38;101021.10;;;30.78;35.62
62928;BME280;51070;52.236;-0.892;2023-06-22T09:58:03;101022.97;;;31.27;35.48
62928;BME280;51070;52.236;-0.892;2023-06-22T10:00:29;101027.44;;;33.11;32.89
62928;BME280;51070;52.236;-0.892;2023-06-22T10:02:54;101026.54;;;34.09;31.25
62928;BME280;51070;52.236;-0.892;2023-06-22T10:05:21;101033.06;;;33.84;31.65
62928;BME280;51070;52.236;-0.892;2023-06-22T10:07:47;101025.66;;;34.41;30.53
62928;BME280;51070;52.236;-0.892;2023-06-22T10:10:13;101025.91;;;35.40;30.29
62928;BME280;51070;52.236;-0.892;2023-06-22T10:12:45;101029.92;;;35.92;29.39
62928;BME280;51070;52.236;-0.892;2023-06-22T10:15:11;101029.79;;;35.30;28.71
62928;BME280;51070;52.236;-0.892;2023-06-22T10:17:37;101028.91;;;35.65;29.49
62928;BME280;51070;52.236;-0.892;2023-06-22T10:20:04;101028.04;;;36.27;28.17
62928;BME280;51070;52.236;-0.892;2023-06-22T10:22:37;101024.68;;;36.94;26.70
62928;BME280;51070;52.236;-0.892;2023-06-22T10:25:04;101026.08;;;37.60;27.01
62928;BME280;51070;52.236;-0.892;2023-06-22T10:27:29;101026.19;;;38.08;25.66
62928;BME280;51070;52.236;-0.892;2023-06-22T10:29:54;101033.89;;;37.66;25.39
62928;BME280;51070;52.236;-0.892;2023-06-22T10:32:20;101030.78;;;36.95;26.08
62928;BME280;51070;52.236;-0.892;2023-06-22T10:34:45;101030.61;;;36.97;26.28
62928;BME280;51070;52.236;-0.892;2023-06-22T10:37:11;101026.38;;;37.25;26.79
62928;BME280;51070;52.236;-0.892;2023-06-22T10:39:36;101029.23;;;37.35;26.00
62928;BME280;51070;52.236;-0.892;2023-06-22T10:42:02;101029.09;;;37.56;25.89
62928;BME280;51070;52.236;-0.892;2023-06-22T10:44:27;101028.25;;;37.74;25.60
62928;BME280;51070;52.236;-0.892;2023-06-22T10:46:52;101030.41;;;37.62;25.54
62928;BME280;51070;52.236;-0.892;2023-06-22T10:49:18;101028.52;;;37.54;25.35
62928;BME280;51070;52.236;-0.892;2023-06-22T10:51:43;101021.69;;;36.63;25.85
62928;BME280;51070;52.236;-0.892;2023-06-22T10:54:08;101019.90;;;35.47;26.58
62928;BME280;51070;52.236;-0.892;2023-06-22T10:56:34;101021.09;;;34.53;27.79
62928;BME280;51070;52.236;-0.892;2023-06-22T10:58:59;101028.91;;;33.66;29.20
62928;BME280;51070;52.236;-0.892;2023-06-22T11:01:24;101024.09;;;33.07;30.19
62928;BME280;51070;52.236;-0.892;2023-06-22T11:03:50;101025.38;;;32.58;30.80
62928;BME280;51070;52.236;-0.892;2023-06-22T11:06:15;101026.17;;;32.10;31.01
62928;BME280;51070;52.236;-0.892;2023-06-22T11:08:44;101026.73;;;31.71;31.69
62928;BME280;51070;52.236;-0.892;2023-06-22T11:11:09;101027.58;;;31.43;32.70
62928;BME280;51070;52.236;-0.892;2023-06-22T11:13:35;101026.27;;;31.19;32.88
62928;BME280;51070;52.236;-0.892;2023-06-22T11:16:00;101026.38;;;31.06;32.98
62928;BME280;51070;52.236;-0.892;2023-06-22T11:18:25;101022.52;;;30.92;33.73
62928;BME280;51070;52.236;-0.892;2023-06-22T11:20:51;101020.21;;;30.74;33.79
62928;BME280;51070;52.236;-0.892;2023-06-22T11:23:16;101022.55;;;30.77;34.45
62928;BME280;51070;52.236;-0.892;2023-06-22T11:25:41;101022.17;;;30.92;34.57
62928;BME280;51070;52.236;-0.892;2023-06-22T11:28:08;101022.67;;;30.89;34.29
62928;BME280;51070;52.236;-0.892;2023-06-22T11:30:33;101021.06;;;30.90;34.02
62928;BME280;51070;52.236;-0.892;2023-06-22T11:32:59;101025.27;;;31.06;34.03
62928;BME280;51070;52.236;-0.892;2023-06-22T11:35:25;101022.93;;;31.36;34.38
62928;BME280;51070;52.236;-0.892;2023-06-22T11:37:51;101020.03;;;31.51;33.86
62928;BME280;51070;52.236;-0.892;2023-06-22T11:40:16;101022.25;;;31.39;33.50
62928;BME280;51070;52.236;-0.892;2023-06-22T11:42:43;101021.51;;;31.40;33.58
62928;BME280;51070;52.236;-0.892;2023-06-22T11:45:09;101018.56;;;31.56;33.48
62928;BME280;51070;52.236;-0.892;2023-06-22T11:47:35;101015.71;;;31.63;33.28
62928;BME280;51070;52.236;-0.892;2023-06-22T11:50:02;101017.95;;;31.43;33.23
62928;BME280;51070;52.236;-0.892;2023-06-22T11:52:27;101012.40;;;31.10;33.07
62928;BME280;51070;52.236;-0.892;2023-06-22T11:54:52;101010.98;;;30.73;33.29
62928;BME280;51070;52.236;-0.892;2023-06-22T11:57:18;101009.22;;;30.45;33.97
62928;BME280;51070;52.236;-0.892;2023-06-22T11:59:43;101010.42;;;30.22;34.38
62928;BME280;51070;52.236;-0.892;2023-06-22T12:02:08;101010.52;;;30.04;34.21
62928;BME280;51070;52.236;-0.892;2023-06-22T12:04:35;101012.03;;;29.85;34.91
62928;BME280;51070;52.236;-0.892;2023-06-22T12:07:00;101013.61;;;29.64;34.43
62928;BME280;51070;52.236;-0.892;2023-06-22T12:09:25;101016.55;;;29.62;34.79
62928;BME280;51070;52.236;-0.892;2023-06-22T12:11:51;101012.71;;;29.99;35.34
62928;BME280;51070;52.236;-0.892;2023-06-22T12:14:16;101003.64;;;30.34;34.21
62928;BME280;51070;52.236;-0.892;2023-06-22T12:16:41;100999.60;;;30.68;34.35
62928;BME280;51070;52.236;-0.892;2023-06-22T12:19:09;101001.48;;;31.04;33.59
62928;BME280;51070;52.236;-0.892;2023-06-22T12:21:37;101000.25;;;31.29;33.40
62928;BME280;51070;52.236;-0.892;2023-06-22T12:24:03;100998.61;;;31.58;33.42
62928;BME280;51070;52.236;-0.892;2023-06-22T12:26:28;100997.23;;;31.92;32.76
62928;BME280;51070;52.236;-0.892;2023-06-22T12:28:53;100991.94;;;32.15;31.62
62928;BME280;51070;52.236;-0.892;2023-06-22T12:31:19;100991.56;;;32.19;31.16
62928;BME280;51070;52.236;-0.892;2023-06-22T12:33:44;100988.58;;;32.07;31.08
62928;BME280;51070;52.236;-0.892;2023-06-22T12:36:09;100988.59;;;32.07;31.76
62928;BME280;51070;52.236;-0.892;2023-06-22T12:38:35;100985.50;;;32.08;31.76
62928;BME280;51070;52.236;-0.892;2023-06-22T12:41:00;100984.40;;;32.13;31.49
62928;BME280;51070;52.236;-0.892;2023-06-22T12:43:26;100981.20;;;32.25;31.57